Ashley, MI

10:26 AM EDT on September 16, 2014 (GMT -0400)
Hoovers Corners | Change Station
CLOSE
Current Station
Personal Weather Station
Location: Elsie, MI
Elevation: 741 ft
Nearby Weather Stations
Active Advisory: Dense Fog Advisory

Elev 741 ft 43.10 °N, 84.34 °W | Updated 13 minutes ago

Fog
Fog
50.6 °F
Feels Like 50.6 °F
N
3.0
Wind Variable Wind from North
Gusts 3.0 mph

Today
High -- | Low -- °F
--% Chance of Precip.
Yesterday
High -- | Low -- °F
Precip. -- in
7:18 AM 7:46 PM
Last Quarter, 45% visible
Pressure 30.18 in
Visibility 0.5 miles
Clouds Overcast 200 ft
Dew Point 50 °F
Humidity 98%
Rainfall 0.01 in
Snow Depth Not available.
UV 1 out of 12
Pollen 3.10 out of 12
Ozone Good
Flu Activity Not available.
METAR KAMN 161408Z AUTO 19004KT 1/2SM FG OVC002 10/09 A3018 RMK AO2 T00960092

More Conditions Fewer Conditions

Pressure 30.18 in
Visibility 0.5 miles
Clouds Overcast 200 ft
Dew Point 50 °F
Humidity 98%
Rainfall 0.01 in
Snow Depth Not available.
UV 1 out of 12
Pollen 3.10 out of 12
Ozone Good
Flu Activity Not available.
METAR KAMN 161408Z AUTO 19004KT 1/2SM FG OVC002 10/09 A3018 RMK AO2 T00960092

More Conditions Fewer Conditions

10-Day Weather Forecast

Almanac

Astronomy

Sep. 16, 2014 Rise Set
Actual Time 7:18 AM EDT 7:46 PM EDT
Civil Twilight 6:50 AM EDT 8:14 PM EDT
Nautical Twilight 6:16 AM EDT 8:48 PM EDT
Astronomical Twilight 5:41 AM EDT 9:22 PM EDT
Moon 12:20 AM EDT 3:16 PM EDT
Length of Visible Light 13h 24m
Length of Day
12h 27m
Tomorrow will be 2m 54s shorter.
Last Quarter, 45% of the Moon is Illuminated
Today
Last Quarter
Sep 24
New
Oct 1
First Quarter
Oct 8
Full
Oct 15
Last Quarter

Today's Extremes

State Highs State Lows

Community

WunderPhotos

Upload Photos

1,753,784 photos uploaded!

Nearby

Air Quality

  Air Quality AQ Index Pollutant
Yesterday Good
OZONE
Current Good
OZONE
Tuesday Good
OZONE
Tuesday Good
PM2.5
Wednesday Good
OZONE
Wednesday Good
PM2.5
Thursday Good
OZONE
Thursday Good
PM2.5
Friday Good
OZONE
Friday Good
PM2.5
Saturday Good
OZONE
Saturday Good
PM2.5

Snow Depth

Station Depth Elevation
No new snow has been reported.

Earthquake Activity

City Distance Mag. Time & Date
No recent earthquake activity has been reported nearby.
Minimum magnitude displayed is 2.5.

Coastal Water Temperatures

Place Temperature
No Stations Reporting

Nearby Weather Stations